Time;durP1;ratioP1;P1;durP2;ratioP2;P2;SDS_P1;SDS_P2;PMS_P1;PMS_P2;Temp;Humidity;BMP_temperature;BMP_pressure;BME280_temperature;BME280_humidity;BME280_pressure;Samples;Min_cycle;Max_cycle;Signal;HPM_P1;HPM_P2
2022/11/01 00:01:15;;;;;;;74.65;35.97;;;12.10;99.90;;;;;;5053629;28;20028;-86
2022/11/01 00:03:40;;;;;;;70.82;35.90;;;12.00;99.90;;;;;;5065308;28;20233;-86
2022/11/01 00:06:06;;;;;;;59.65;32.17;;;12.00;99.90;;;;;;5056963;28;20045;-83
2022/11/01 00:08:32;;;;;;;69.45;32.72;;;12.10;99.90;;;;;;5059241;28;20059;-86
2022/11/01 00:11:06;;;;;;;68.72;34.65;;;12.10;99.90;;;;;;5053207;28;20031;-86
2022/11/01 00:13:31;;;;;;;49.90;26.60;;;12.10;99.90;;;;;;5051857;28;20540;-86
2022/11/01 00:15:57;;;;;;;62.58;32.05;;;12.00;99.90;;;;;;5055481;28;20028;-83
2022/11/01 00:18:23;;;;;;;62.42;32.92;;;12.00;99.90;;;;;;5053456;28;20146;-86
2022/11/01 00:20:49;;;;;;;38.30;22.60;;;12.00;99.90;;;;;;5057486;28;20028;-87
2022/11/01 00:23:14;;;;;;;46.78;26.30;;;12.00;99.90;;;;;;5051531;28;20375;-86
2022/11/01 00:25:40;;;;;;;49.35;24.67;;;11.90;99.90;;;;;;5060938;28;20477;-86
2022/11/01 00:28:06;;;;;;;49.97;26.67;;;11.90;99.90;;;;;;5056652;28;20024;-85
2022/11/01 00:30:34;;;;;;;43.33;24.88;;;11.90;99.90;;;;;;5052185;28;20466;-83
2022/11/01 00:33:00;;;;;;;46.22;26.35;;;11.90;99.90;;;;;;5056113;28;20021;-86
2022/11/01 00:35:25;;;;;;;51.78;27.55;;;11.90;99.90;;;;;;5055420;28;20055;-87
2022/11/01 00:37:51;;;;;;;55.92;29.65;;;11.90;99.90;;;;;;5053232;28;20031;-87
2022/11/01 00:40:17;;;;;;;39.00;22.05;;;11.80;99.90;;;;;;5052245;28;20028;-87
2022/11/01 00:42:42;;;;;;;40.17;22.50;;;11.80;99.90;;;;;;5056283;28;20028;-86
2022/11/01 00:45:08;;;;;;;38.17;21.92;;;11.80;99.90;;;;;;5050314;28;20178;-87
2022/11/01 00:47:34;;;;;;;50.30;21.13;;;11.80;99.90;;;;;;5050863;28;20086;-87
2022/11/01 00:49:59;;;;;;;47.50;25.33;;;11.80;99.90;;;;;;5049213;28;20032;-88
2022/11/01 00:52:25;;;;;;;56.22;29.05;;;11.80;99.90;;;;;;5057407;28;20025;-86
2022/11/01 00:54:51;;;;;;;47.00;26.08;;;11.80;99.90;;;;;;5057004;28;20437;-85
2022/11/01 00:57:16;;;;;;;63.45;33.75;;;11.70;99.90;;;;;;5053567;28;20064;-86
2022/11/01 00:59:42;;;;;;;72.68;33.75;;;11.80;99.90;;;;;;5051001;28;20049;-87
2022/11/01 01:02:07;;;;;;;54.67;29.13;;;11.80;99.90;;;;;;5051046;28;20145;-86
2022/11/01 01:04:33;;;;;;;55.88;29.27;;;11.70;99.90;;;;;;5054034;28;20043;-87
2022/11/01 01:06:59;;;;;;;56.38;29.30;;;11.70;99.90;;;;;;5056170;28;20399;-85
2022/11/01 01:09:24;;;;;;;53.50;28.17;;;11.70;99.90;;;;;;5058323;28;20029;-86
2022/11/01 01:11:50;;;;;;;50.33;27.73;;;11.70;99.90;;;;;;5050935;28;20057;-87
2022/11/01 01:14:16;;;;;;;64.53;31.98;;;11.70;99.90;;;;;;5053710;28;20059;-86
2022/11/01 01:16:41;;;;;;;53.80;29.20;;;11.60;99.90;;;;;;5054591;28;20029;-86
2022/11/01 01:19:07;;;;;;;55.30;29.55;;;11.60;99.90;;;;;;5058114;28;20496;-86
2022/11/01 01:21:33;;;;;;;51.80;28.45;;;11.70;99.90;;;;;;5056481;28;20469;-86
2022/11/01 01:23:58;;;;;;;52.70;27.95;;;11.70;99.90;;;;;;5051251;28;20023;-87
2022/11/01 01:26:24;;;;;;;58.25;29.77;;;11.60;99.90;;;;;;5054154;28;20043;-86
2022/11/01 01:28:52;;;;;;;76.35;33.50;;;11.60;99.90;;;;;;5053386;28;20029;-85
2022/11/01 01:31:18;;;;;;;65.28;29.98;;;11.60;99.90;;;;;;5053286;28;20029;-87
2022/11/01 01:33:43;;;;;;;51.03;26.05;;;11.60;99.90;;;;;;5054499;28;20036;-87
2022/11/01 01:36:09;;;;;;;74.90;33.42;;;11.60;99.90;;;;;;5050166;28;20029;-86
2022/11/01 01:38:35;;;;;;;56.22;28.95;;;11.70;99.90;;;;;;5052988;28;20029;-86
2022/11/01 01:43:46;;;;;;;48.15;27.10;;;11.80;99.90;;;;;;5054959;28;20072;-88
2022/11/01 01:46:11;;;;;;;50.13;26.98;;;11.80;99.90;;;;;;5061711;28;20080;-87
2022/11/01 01:48:40;;;;;;;62.05;31.02;;;11.80;99.90;;;;;;5058214;28;20071;-85
2022/11/01 01:51:10;;;;;;;66.45;32.92;;;11.90;99.90;;;;;;5059073;28;20028;-84
2022/11/01 01:53:46;;;;;;;61.63;28.00;;;11.90;99.90;;;;;;5056128;28;20036;-83
2022/11/01 01:56:14;;;;;;;;;;;11.90;99.90;;;;;;5053885;28;20032;-87
2022/11/01 01:58:48;;;;;;;55.10;27.83;;;11.90;99.90;;;;;;5061404;28;19915;-88
2022/11/01 02:01:14;;;;;;;53.28;28.38;;;11.90;99.90;;;;;;5056040;28;20047;-87
2022/11/01 02:03:41;;;;;;;52.60;26.65;;;11.90;99.90;;;;;;5054397;28;20029;-88
2022/11/01 02:06:15;;;;;;;53.92;26.67;;;11.90;99.90;;;;;;5050286;28;21405;-86
2022/11/01 02:08:48;;;;;;;37.75;21.35;;;11.90;99.90;;;;;;5055672;28;20033;-83
2022/11/01 02:11:16;;;;;;;41.25;19.08;;;11.90;99.90;;;;;;5051275;28;20032;-86
2022/11/01 02:13:41;;;;;;;47.15;23.80;;;11.90;99.90;;;;;;5053070;28;20074;-87
2022/11/01 02:16:30;;;;;;;40.47;20.05;;;12.00;99.90;;;;;;5056164;28;20067;-86
2022/11/01 02:19:01;;;;;;;37.13;18.48;;;12.00;99.90;;;;;;5057797;28;20153;-88
2022/11/01 02:21:29;;;;;;;34.80;20.27;;;12.00;99.90;;;;;;5057247;28;20116;-87
2022/11/01 02:24:19;;;;;;;32.38;19.92;;;12.00;99.90;;;;;;5050362;28;20032;-87
2022/11/01 02:27:01;;;;;;;32.97;17.80;;;12.00;99.90;;;;;;5052906;28;20095;-90
2022/11/01 02:30:00;;;;;;;41.13;19.30;;;12.00;99.90;;;;;;5061549;28;20023;-87
2022/11/01 02:32:32;;;;;;;28.60;15.65;;;12.00;99.90;;;;;;5056504;28;20021;-87
2022/11/01 02:35:06;;;;;;;32.22;17.55;;;12.00;99.90;;;;;;5049993;28;20474;-87
2022/11/01 02:37:47;;;;;;;28.30;15.73;;;12.00;99.90;;;;;;5049724;28;20374;-86
2022/11/01 02:40:49;;;;;;;42.83;18.73;;;11.90;99.90;;;;;;5049765;28;20040;-87
2022/11/01 02:43:42;;;;;;;28.67;16.30;;;11.90;99.90;;;;;;5042339;28;20490;-87
2022/11/01 02:48:55;;;;;;;23.88;14.07;;;11.90;99.90;;;;;;5060184;28;20039;-87
2022/11/01 02:51:24;;;;;;;34.08;18.10;;;11.90;99.90;;;;;;5056555;28;20246;-86
2022/11/01 02:53:50;;;;;;;26.60;15.30;;;11.80;99.90;;;;;;5055101;28;20066;-84
2022/11/01 02:56:17;;;;;;;30.52;15.30;;;11.80;99.90;;;;;;5053049;28;20115;-87
2022/11/01 02:58:46;;;;;;;33.90;15.90;;;11.80;99.90;;;;;;5058064;28;20031;-87
2022/11/01 03:01:18;;;;;;;28.38;14.38;;;11.80;99.90;;;;;;5061586;28;20399;-87
2022/11/01 03:03:46;;;;;;;17.95;11.82;;;11.80;99.90;;;;;;5060262;28;20036;-87
2022/11/01 03:06:20;;;;;;;29.95;14.65;;;11.80;99.90;;;;;;5061990;28;20459;-84
2022/11/01 03:08:59;;;;;;;26.30;13.38;;;11.80;99.90;;;;;;5060170;28;20044;-87
2022/11/01 03:11:44;;;;;;;28.75;13.43;;;11.80;99.90;;;;;;5058998;28;20457;-87
2022/11/01 03:14:28;;;;;;;21.15;11.70;;;11.80;99.90;;;;;;5061583;28;20024;-87
2022/11/01 03:17:19;;;;;;;24.33;12.52;;;11.80;99.90;;;;;;5055355;28;20036;-87
2022/11/01 03:19:48;;;;;;;35.17;13.02;;;11.80;99.90;;;;;;5060479;28;20063;-88
2022/11/01 03:22:35;;;;;;;35.33;13.40;;;11.80;99.90;;;;;;5055579;28;20033;-87
2022/11/01 03:25:03;;;;;;;20.00;10.20;;;11.80;99.90;;;;;;5055093;28;20432;-87
2022/11/01 03:27:42;;;;;;;26.85;13.60;;;11.80;99.90;;;;;;5053482;28;20431;-88
2022/11/01 03:30:12;;;;;;;27.33;13.55;;;11.90;99.90;;;;;;5058679;28;20025;-86
2022/11/01 03:32:48;;;;;;;26.88;12.15;;;11.80;99.90;;;;;;5061123;28;20060;-87
2022/11/01 03:35:16;;;;;;;;;;;11.90;99.90;;;;;;5061966;28;20036;-87
2022/11/01 03:37:44;;;;;;;28.90;12.43;;;11.90;99.90;;;;;;5056455;28;19909;-86
2022/11/01 03:40:13;;;;;;;24.10;11.48;;;11.90;99.90;;;;;;5061331;28;20304;-87
2022/11/01 03:42:40;;;;;;;30.67;13.80;;;12.00;99.90;;;;;;5053802;28;20404;-86
2022/11/01 03:45:11;;;;;;;27.85;12.73;;;12.10;99.90;;;;;;5052397;28;20142;-83
2022/11/01 03:47:37;;;;;;;31.15;14.48;;;12.00;99.90;;;;;;5051946;28;20052;-86
2022/11/01 03:50:27;;;;;;;35.42;13.52;;;12.10;99.90;;;;;;5048891;28;20063;-85
2022/11/01 03:52:53;;;;;;;49.13;13.80;;;12.10;99.90;;;;;;5045394;28;20087;-87
2022/11/01 03:55:19;;;;;;;31.17;11.68;;;12.30;99.90;;;;;;5052751;28;20031;-87
2022/11/01 03:57:57;;;;;;;23.05;13.38;;;12.30;99.90;;;;;;5059691;28;20021;-88
2022/11/01 04:00:34;;;;;;;29.17;12.98;;;12.30;99.90;;;;;;5054514;28;20464;-86
2022/11/01 04:03:00;;;;;;;21.98;12.05;;;12.30;99.90;;;;;;5055373;28;20031;-87
2022/11/01 04:05:29;;;;;;;29.88;13.27;;;12.30;99.90;;;;;;5056862;28;20620;-83
2022/11/01 04:07:55;;;;;;;28.63;12.73;;;12.30;99.90;;;;;;5053422;28;20029;-87
2022/11/01 04:10:22;;;;;;;22.13;10.45;;;12.40;99.90;;;;;;5056156;28;20157;-85
2022/11/01 04:12:49;;;;;;;32.38;13.65;;;12.40;99.90;;;;;;5060410;28;20036;-85
2022/11/01 04:20:48;;;;;;;38.05;10.02;;;12.90;99.90;;;;;;5056934;28;20052;-85
2022/11/01 04:23:14;;;;;;;26.50;7.82;;;13.10;99.90;;;;;;5059348;28;20477;-84
2022/11/01 04:25:39;;;;;;;20.48;6.00;;;13.30;99.90;;;;;;5054028;28;20036;-84
2022/11/01 04:28:05;;;;;;;23.50;6.50;;;13.70;99.90;;;;;;5052162;28;20037;-85
2022/11/01 04:30:36;;;;;;;25.48;6.00;;;14.10;99.90;;;;;;5057954;28;20028;-86
2022/11/01 04:33:02;;;;;;;20.30;6.30;;;14.40;99.90;;;;;;5055276;28;20460;-87
2022/11/01 04:35:28;;;;;;;17.65;6.15;;;14.50;99.90;;;;;;5052399;28;20029;-86
2022/11/01 04:37:58;;;;;;;25.33;5.70;;;14.60;99.90;;;;;;5056824;28;20036;-89
2022/11/01 04:40:25;;;;;;;25.35;6.32;;;14.70;99.90;;;;;;5058315;28;20032;-87
2022/11/01 04:42:52;;;;;;;24.95;6.75;;;15.00;99.90;;;;;;5055022;28;20024;-85
2022/11/01 04:45:18;;;;;;;22.65;5.07;;;15.30;99.90;;;;;;5052868;28;20462;-86
2022/11/01 04:47:51;;;;;;;20.10;5.57;;;15.60;99.90;;;;;;5052092;28;20414;-86
2022/11/01 04:50:18;;;;;;;30.92;6.20;;;15.70;99.90;;;;;;5051253;28;20029;-88
2022/11/01 04:52:44;;;;;;;12.18;5.28;;;15.90;99.90;;;;;;5055022;28;20489;-84
2022/11/01 04:55:09;;;;;;;19.95;5.95;;;16.10;99.90;;;;;;5057646;28;20024;-85
2022/11/01 04:57:39;;;;;;;22.40;5.55;;;16.10;99.90;;;;;;5050272;28;20032;-82
2022/11/01 05:00:05;;;;;;;21.23;5.15;;;16.20;99.90;;;;;;5054428;28;20517;-85
2022/11/01 05:02:31;;;;;;;16.75;5.05;;;16.20;99.90;;;;;;5051284;28;20032;-84
2022/11/01 05:04:57;;;;;;;28.75;8.30;;;16.10;99.90;;;;;;5057643;28;20317;-86
2022/11/01 05:07:22;;;;;;;20.67;7.82;;;16.00;99.90;;;;;;5053930;28;20027;-86
2022/11/01 05:09:48;;;;;;;16.52;6.53;;;15.80;99.90;;;;;;5056966;28;20028;-85
2022/11/01 05:12:13;;;;;;;9.23;5.88;;;15.60;99.90;;;;;;5047762;28;20077;-85
2022/11/01 05:14:39;;;;;;;26.38;10.32;;;15.40;99.90;;;;;;5056095;28;20048;-86
2022/11/01 05:17:05;;;;;;;18.63;7.60;;;15.30;99.90;;;;;;5055595;28;20033;-86
2022/11/01 05:19:30;;;;;;;17.58;7.38;;;15.10;99.90;;;;;;5057223;28;20246;-85
2022/11/01 05:21:58;;;;;;;20.95;7.82;;;15.00;99.90;;;;;;5052385;28;20029;-84
2022/11/01 05:24:24;;;;;;;19.92;6.00;;;15.00;99.90;;;;;;5046714;28;20051;-86
2022/11/01 05:26:49;;;;;;;18.88;6.07;;;15.00;99.90;;;;;;5054206;28;20044;-85
2022/11/01 05:29:15;;;;;;;16.17;6.20;;;15.20;99.90;;;;;;5050989;28;20029;-86
2022/11/01 05:31:41;;;;;;;23.83;6.13;;;15.50;99.90;;;;;;5051313;28;20029;-87
2022/11/01 05:34:09;;;;;;;20.88;6.15;;;16.00;99.90;;;;;;5053969;28;20037;-82
2022/11/01 05:36:35;;;;;;;19.88;6.30;;;16.10;99.90;;;;;;5053269;28;20465;-83
2022/11/01 05:39:00;;;;;;;29.40;6.55;;;16.40;99.90;;;;;;5056561;28;20025;-88
2022/11/01 05:41:26;;;;;;;21.17;6.43;;;16.40;99.90;;;;;;5055902;28;20052;-86
2022/11/01 05:43:51;;;;;;;14.63;5.75;;;16.40;99.90;;;;;;5052240;28;21069;-89
2022/11/01 05:46:17;;;;;;;26.83;6.40;;;16.40;99.90;;;;;;5054976;28;20041;-81
2022/11/01 05:48:43;;;;;;;31.10;7.82;;;16.50;99.90;;;;;;5056007;28;20028;-89
2022/11/01 05:51:09;;;;;;;22.52;7.40;;;16.40;99.90;;;;;;5061322;28;20020;-85
2022/11/01 05:53:35;;;;;;;20.25;6.78;;;16.30;99.90;;;;;;5052037;28;20029;-82
2022/11/01 05:56:02;;;;;;;21.45;7.82;;;16.20;99.90;;;;;;5053558;28;20112;-85
2022/11/01 05:58:28;;;;;;;20.42;6.93;;;16.10;99.90;;;;;;5053492;28;20055;-86
2022/11/01 06:00:59;;;;;;;29.05;8.23;;;15.90;99.90;;;;;;5052612;28;20111;-86
2022/11/01 06:03:24;;;;;;;34.88;9.30;;;15.80;99.90;;;;;;5048332;28;20099;-87
2022/11/01 06:05:51;;;;;;;29.77;8.95;;;15.70;99.90;;;;;;5047415;28;20736;-86
2022/11/01 06:08:17;;;;;;;26.33;8.25;;;15.80;99.90;;;;;;5056148;28;20017;-89
2022/11/01 06:10:43;;;;;;;23.92;7.60;;;15.70;99.90;;;;;;5050324;28;20083;-87
2022/11/01 06:13:09;;;;;;;19.95;8.25;;;15.60;99.90;;;;;;5055498;28;20409;-88
2022/11/01 06:15:35;;;;;;;30.55;8.80;;;15.60;99.90;;;;;;5049657;28;20112;-85
2022/11/01 06:18:01;;;;;;;25.88;9.32;;;15.60;99.90;;;;;;5052628;28;20031;-85
2022/11/01 06:20:29;;;;;;;22.00;8.15;;;15.50;99.90;;;;;;5067323;28;20508;-88
2022/11/01 06:22:55;;;;;;;30.90;8.73;;;15.60;99.90;;;;;;5058203;28;20073;-87
2022/11/01 06:25:21;;;;;;;31.38;9.80;;;15.50;99.90;;;;;;5057936;28;20036;-87
2022/11/01 06:27:47;;;;;;;27.63;9.43;;;15.60;99.90;;;;;;5051759;28;20025;-86
2022/11/01 06:30:13;;;;;;;26.52;9.80;;;15.50;99.90;;;;;;5050719;28;20099;-86
2022/11/01 06:32:39;;;;;;;26.65;8.45;;;15.50;99.90;;;;;;5056757;28;20463;-90
2022/11/01 06:35:04;;;;;;;24.50;9.23;;;15.50;99.90;;;;;;5054355;28;20040;-88
2022/11/01 06:37:30;;;;;;;24.55;9.55;;;15.40;99.90;;;;;;5050387;28;20119;-92
2022/11/01 06:39:56;;;;;;;29.60;9.85;;;15.30;99.90;;;;;;5056450;28;20049;-85
2022/11/01 06:42:21;;;;;;;26.70;9.40;;;15.30;99.90;;;;;;5054702;28;20025;-86
2022/11/01 06:44:50;;;;;;;28.52;10.75;;;15.20;99.90;;;;;;5050584;28;20844;-81
2022/11/01 06:47:17;;;;;;;27.95;11.18;;;15.10;99.90;;;;;;5055702;28;20037;-82
2022/11/01 06:49:42;;;;;;;25.10;9.98;;;15.20;99.90;;;;;;5052325;28;20474;-86
2022/11/01 06:52:08;;;;;;;31.13;10.00;;;15.10;99.90;;;;;;5054438;28;20111;-88
2022/11/01 06:54:33;;;;;;;30.83;10.25;;;15.20;99.90;;;;;;5054976;28;20029;-89
2022/11/01 06:56:59;;;;;;;30.10;9.80;;;15.30;99.90;;;;;;5051819;28;20052;-88
2022/11/01 06:59:24;;;;;;;23.50;9.68;;;15.30;99.90;;;;;;5050163;28;20029;-89
2022/11/01 07:01:53;;;;;;;22.67;9.20;;;15.40;99.90;;;;;;5053449;28;20032;-87
2022/11/01 07:04:20;;;;;;;30.13;9.30;;;15.40;99.90;;;;;;5058955;28;20646;-88
2022/11/01 07:06:48;;;;;;;25.08;9.25;;;15.50;99.90;;;;;;5050669;28;20053;-88
2022/11/01 07:09:14;;;;;;;25.98;8.05;;;15.50;99.90;;;;;;5055200;28;20466;-90
2022/11/01 07:11:40;;;;;;;25.75;8.77;;;15.40;99.90;;;;;;5050778;28;20056;-87
2022/11/01 07:14:05;;;;;;;28.95;8.23;;;15.30;99.90;;;;;;5053957;28;20024;-86
2022/11/01 07:16:32;;;;;;;25.08;8.32;;;15.20;99.90;;;;;;5060358;28;20028;-87
2022/11/01 07:18:59;;;;;;;27.10;9.85;;;15.20;99.90;;;;;;5052873;28;20028;-81
2022/11/01 07:21:25;;;;;;;25.05;8.10;;;15.20;99.90;;;;;;5054151;28;20167;-92
2022/11/01 07:23:52;;;;;;;23.40;8.23;;;15.20;99.90;;;;;;5054058;28;20032;-85
2022/11/01 07:26:18;;;;;;;23.10;9.18;;;15.10;99.90;;;;;;5054912;28;20103;-84
2022/11/01 07:28:44;;;;;;;21.90;9.00;;;15.10;99.90;;;;;;5062950;28;20029;-87
2022/11/01 07:31:10;;;;;;;25.13;9.15;;;15.10;99.90;;;;;;5056367;28;20543;-92
2022/11/01 07:33:35;;;;;;;23.10;8.80;;;15.00;99.90;;;;;;5058357;28;20112;-92
2022/11/01 07:36:02;;;;;;;31.10;9.38;;;15.10;99.90;;;;;;5059557;28;20053;-92
2022/11/01 07:38:28;;;;;;;29.02;9.38;;;15.00;99.90;;;;;;5062648;28;20017;-90
2022/11/01 07:40:53;;;;;;;28.02;10.88;;;15.00;99.90;;;;;;5055677;28;20095;-89
2022/11/01 07:43:19;;;;;;;23.83;9.02;;;15.00;99.90;;;;;;5058686;28;20095;-88
2022/11/01 07:45:45;;;;;;;28.05;8.60;;;15.00;99.90;;;;;;5056970;28;20051;-88
2022/11/01 07:48:13;;;;;;;19.30;8.77;;;15.00;99.90;;;;;;5056498;28;20033;-89
2022/11/01 07:50:40;;;;;;;38.63;10.23;;;15.00;99.90;;;;;;5057128;28;20029;-88
2022/11/01 07:53:13;;;;;;;27.48;9.30;;;15.10;99.90;;;;;;5060952;28;20024;-86
2022/11/01 07:55:40;;;;;;;33.40;9.98;;;15.10;99.90;;;;;;5059620;28;20041;-84
2022/11/01 07:58:06;;;;;;;24.90;9.57;;;15.00;99.90;;;;;;5059526;28;20032;-86
2022/11/01 08:00:32;;;;;;;25.63;9.60;;;15.00;99.90;;;;;;5062113;28;20032;-88
2022/11/01 08:03:00;;;;;;;24.10;9.82;;;15.00;99.90;;;;;;5054660;28;20074;-89
2022/11/01 08:05:25;;;;;;;20.58;8.38;;;15.00;99.90;;;;;;5062093;28;20041;-87
2022/11/01 08:07:51;;;;;;;18.20;8.55;;;15.00;99.90;;;;;;5055837;28;20039;-86
2022/11/01 08:10:16;;;;;;;23.35;9.02;;;15.00;99.90;;;;;;5059643;28;20062;-87
2022/11/01 08:12:42;;;;;;;21.08;9.00;;;15.00;99.90;;;;;;5054891;28;20036;-87
2022/11/01 08:15:08;;;;;;;20.50;9.05;;;15.00;99.90;;;;;;5057345;28;20029;-87
2022/11/01 08:17:35;;;;;;;16.05;7.90;;;15.00;99.90;;;;;;5059752;28;20032;-88
2022/11/01 08:20:01;;;;;;;12.10;7.30;;;15.10;99.90;;;;;;5057599;28;20028;-88
2022/11/01 08:22:27;;;;;;;20.40;8.50;;;15.10;99.90;;;;;;5056716;28;20389;-90
2022/11/01 08:24:52;;;;;;;16.38;6.68;;;15.10;99.90;;;;;;5061855;28;20484;-87
2022/11/01 08:27:18;;;;;;;22.00;7.07;;;15.10;99.90;;;;;;5059758;28;20037;-87
2022/11/01 08:29:43;;;;;;;27.90;6.82;;;15.20;99.90;;;;;;5058362;28;20421;-90
2022/11/01 08:32:09;;;;;;;17.67;6.07;;;15.20;99.90;;;;;;5057797;28;20033;-88
2022/11/01 08:34:34;;;;;;;21.90;6.80;;;15.20;99.90;;;;;;5059334;28;20029;-82
2022/11/01 08:37:00;;;;;;;12.32;5.38;;;15.30;99.90;;;;;;5059457;28;20033;-88
2022/11/01 08:39:26;;;;;;;14.82;5.57;;;15.30;99.90;;;;;;5058950;28;20043;-88
2022/11/01 08:41:51;;;;;;;18.42;6.38;;;15.30;99.90;;;;;;5059235;28;20022;-86
2022/11/01 08:44:18;;;;;;;25.35;7.97;;;15.30;99.90;;;;;;5057537;28;20047;-88
2022/11/01 08:46:44;;;;;;;15.27;6.22;;;15.30;99.90;;;;;;5058783;28;20148;-87
2022/11/01 08:49:11;;;;;;;12.27;5.35;;;15.40;99.90;;;;;;5057139;28;20043;-87
2022/11/01 08:51:37;;;;;;;22.95;6.40;;;15.40;99.90;;;;;;5058036;28;20467;-87
2022/11/01 08:54:04;;;;;;;13.40;5.82;;;15.40;99.90;;;;;;5056397;28;20067;-87
2022/11/01 08:56:30;;;;;;;26.08;8.40;;;15.40;99.90;;;;;;5062223;28;20029;-86
2022/11/01 08:58:56;;;;;;;15.60;6.50;;;15.30;99.90;;;;;;5057205;28;20039;-88
2022/11/01 09:01:23;;;;;;;20.45;6.32;;;15.30;99.90;;;;;;5057556;28;20048;-84
2022/11/01 09:03:49;;;;;;;15.60;7.25;;;15.40;99.90;;;;;;5055754;28;20036;-88
2022/11/01 09:06:14;;;;;;;27.48;6.88;;;15.50;99.90;;;;;;5059145;28;20044;-87
2022/11/01 09:08:40;;;;;;;14.75;6.75;;;15.40;99.90;;;;;;5058958;28;20051;-89
2022/11/01 09:11:09;;;;;;;19.02;6.55;;;15.40;99.90;;;;;;5058463;28;20019;-85
2022/11/01 09:13:35;;;;;;;13.93;6.45;;;15.40;99.90;;;;;;5057845;28;20047;-85
2022/11/01 09:16:05;;;;;;;27.77;7.70;;;15.40;99.90;;;;;;5050732;28;20047;-89
2022/11/01 09:18:31;;;;;;;17.08;6.60;;;15.40;99.90;;;;;;5067368;28;20040;-87
2022/11/01 09:20:56;;;;;;;15.68;6.93;;;15.50;99.90;;;;;;5053130;28;20371;-85
2022/11/01 09:23:22;;;;;;;17.30;7.10;;;15.60;99.90;;;;;;5056602;28;20389;-85
2022/11/01 09:25:48;;;;;;;15.68;6.68;;;15.60;99.90;;;;;;5057646;28;20048;-87
2022/11/01 09:28:13;;;;;;;20.88;7.40;;;15.60;99.90;;;;;;5061964;28;20526;-86
2022/11/01 09:30:39;;;;;;;16.27;7.05;;;15.70;99.90;;;;;;5065625;28;20074;-88
2022/11/01 09:33:06;;;;;;;23.02;7.95;;;15.70;99.90;;;;;;5050583;28;20033;-85
2022/11/01 09:35:35;;;;;;;21.25;7.00;;;15.70;99.90;;;;;;5055475;28;20128;-85
2022/11/01 09:38:02;;;;;;;10.73;7.00;;;15.80;99.90;;;;;;5058063;28;20029;-85
2022/11/01 09:40:34;;;;;;;22.92;6.55;;;15.80;99.90;;;;;;5057846;28;20489;-86
2022/11/01 09:43:02;;;;;;;20.65;6.90;;;15.80;99.90;;;;;;5053737;28;20025;-87
2022/11/01 09:45:30;;;;;;;14.05;6.78;;;15.90;99.90;;;;;;5056309;28;20635;-86
2022/11/01 09:47:59;;;;;;;15.50;7.07;;;16.00;99.90;;;;;;5061704;28;20032;-87
2022/11/01 09:50:28;;;;;;;13.90;6.97;;;16.00;99.90;;;;;;5062977;28;20055;-87
2022/11/01 09:52:56;;;;;;;18.50;5.82;;;16.10;99.90;;;;;;5056185;28;20036;-85
2022/11/01 09:55:40;;;;;;;15.73;6.57;;;16.00;99.90;;;;;;5056411;28;20032;-87
2022/11/01 09:58:18;;;;;;;15.18;5.90;;;16.00;99.90;;;;;;5057998;28;20020;-84
2022/11/01 10:01:04;;;;;;;21.00;6.88;;;15.90;99.90;;;;;;5057681;28;20032;-86
2022/11/01 10:03:52;;;;;;;22.65;6.18;;;16.00;99.90;;;;;;5056059;28;20090;-88
2022/11/01 10:06:35;;;;;;;20.10;5.78;;;16.00;99.90;;;;;;5063828;28;20037;-83
2022/11/01 10:09:13;;;;;;;17.05;6.05;;;16.00;99.90;;;;;;5062531;28;20029;-88
2022/11/01 10:12:02;;;;;;;19.05;6.68;;;16.00;99.90;;;;;;5056999;28;20025;-85
2022/11/01 10:15:08;;;;;;;12.82;5.78;;;16.00;99.90;;;;;;5055798;28;20517;-87
2022/11/01 10:17:39;;;;;;;18.58;6.18;;;16.00;99.90;;;;;;5039758;28;20041;-82
2022/11/01 10:20:10;;;;;;;8.63;5.55;;;16.00;99.90;;;;;;5053761;28;20029;-85
2022/11/01 10:22:37;;;;;;;19.65;5.32;;;15.90;99.90;;;;;;5051382;28;20021;-84
2022/11/01 10:25:14;;;;;;;14.63;5.40;;;16.00;99.90;;;;;;5055119;28;20029;-87
2022/11/01 10:27:55;;;;;;;10.85;5.13;;;16.00;99.90;;;;;;5055034;28;20021;-87
2022/11/01 10:30:21;;;;;;;10.95;4.43;;;16.10;99.90;;;;;;5055373;28;20104;-85
2022/11/01 10:33:00;;;;;;;15.63;5.55;;;16.20;99.90;;;;;;5056740;28;20125;-86
2022/11/01 10:35:36;;;;;;;15.13;4.65;;;16.10;99.90;;;;;;5057113;28;20482;-86
2022/11/01 10:38:16;;;;;;;9.52;4.35;;;16.20;99.90;;;;;;5057473;28;20094;-86
2022/11/01 10:40:55;;;;;;;9.40;4.00;;;16.20;99.90;;;;;;5057401;28;20082;-86
2022/11/01 10:43:22;;;;;;;11.18;4.55;;;16.20;99.90;;;;;;5057433;28;20067;-87
2022/11/01 10:45:52;;;;;;;13.98;4.90;;;16.20;99.90;;;;;;5052525;28;20058;-84
2022/11/01 10:48:43;;;;;;;8.45;4.32;;;16.30;99.90;;;;;;5057417;28;20044;-87
2022/11/01 10:51:10;;;;;;;13.88;4.35;;;16.30;99.90;;;;;;5055445;28;20028;-85
2022/11/01 10:53:42;;;;;;;12.35;4.25;;;16.40;99.90;;;;;;5057272;28;20033;-88
2022/11/01 10:56:14;;;;;;;9.13;4.10;;;16.40;99.90;;;;;;5057378;28;20048;-87
2022/11/01 10:58:42;;;;;;;15.05;4.68;;;16.50;99.90;;;;;;5051740;28;20028;-87
2022/11/01 11:01:14;;;;;;;9.13;3.65;;;16.60;99.90;;;;;;5057133;28;20025;-85
2022/11/01 11:03:42;;;;;;;18.15;4.97;;;16.70;99.90;;;;;;5057212;28;20046;-85
2022/11/01 11:06:12;;;;;;;20.70;4.22;;;16.70;99.90;;;;;;5055321;28;20037;-86
2022/11/01 11:08:41;;;;;;;16.02;4.57;;;16.80;99.90;;;;;;5060769;28;20036;-86
2022/11/01 11:11:13;;;;;;;16.50;3.88;;;16.80;99.90;;;;;;5060906;28;20460;-88
2022/11/01 11:13:42;;;;;;;9.20;3.75;;;16.90;99.90;;;;;;5060794;28;20040;-85
2022/11/01 11:16:20;;;;;;;6.60;3.17;;;16.80;99.90;;;;;;5053936;28;20060;-86
2022/11/01 11:19:08;;;;;;;13.02;3.25;;;16.80;99.90;;;;;;5059424;28;20055;-88
2022/11/01 11:21:34;;;;;;;7.88;2.70;;;16.90;99.90;;;;;;5059556;28;20021;-85
2022/11/01 11:24:01;;;;;;;8.57;3.65;;;16.90;99.90;;;;;;5060270;28;20029;-85
2022/11/01 11:26:34;;;;;;;10.45;3.15;;;16.90;99.90;;;;;;5060097;28;20290;-87
2022/11/01 11:29:00;;;;;;;7.50;3.15;;;17.00;99.90;;;;;;5056356;28;20037;-87
2022/11/01 11:31:30;;;;;;;13.63;4.03;;;17.00;99.90;;;;;;5060598;28;20025;-87
2022/11/01 11:34:00;;;;;;;7.35;2.92;;;16.90;99.90;;;;;;5060564;28;20405;-86
2022/11/01 11:36:32;;;;;;;10.88;2.97;;;17.00;99.90;;;;;;5059593;28;20028;-85
2022/11/01 11:38:59;;;;;;;8.43;3.25;;;17.00;99.90;;;;;;5057257;28;20398;-85
2022/11/01 11:41:26;;;;;;;9.70;2.88;;;17.00;99.90;;;;;;5053117;28;20035;-85
2022/11/01 11:43:52;;;;;;;11.23;3.03;;;17.00;99.90;;;;;;5066152;28;20393;-88
2022/11/01 11:46:19;;;;;;;11.32;2.65;;;16.90;99.90;;;;;;5060024;28;20051;-81
2022/11/01 11:48:51;;;;;;;8.15;2.75;;;16.90;99.90;;;;;;5060427;28;20127;-86
2022/11/01 11:51:17;;;;;;;8.73;2.60;;;16.90;99.90;;;;;;5060390;28;20361;-83
2022/11/01 11:53:43;;;;;;;6.82;2.45;;;16.90;99.90;;;;;;5061675;28;20116;-85
2022/11/01 11:56:10;;;;;;;8.70;2.92;;;16.90;99.90;;;;;;5067964;28;20033;-89
2022/11/01 11:58:43;;;;;;;12.13;3.45;;;16.80;99.90;;;;;;5058588;28;20033;-84
2022/11/01 12:01:17;;;;;;;11.57;3.25;;;16.90;99.90;;;;;;5067264;28;20029;-89
2022/11/01 12:03:55;;;;;;;9.18;3.17;;;16.90;99.90;;;;;;5063683;28;20021;-87
2022/11/01 12:06:28;;;;;;;8.90;2.65;;;16.90;99.90;;;;;;5057807;28;20102;-84
2022/11/01 12:09:03;;;;;;;13.07;2.88;;;16.90;99.90;;;;;;5060163;28;20485;-86
2022/11/01 12:11:43;;;;;;;5.35;2.80;;;16.90;99.90;;;;;;5057981;28;20039;-84
2022/11/01 12:14:22;;;;;;;12.50;3.13;;;17.00;99.90;;;;;;5057860;28;20029;-86
2022/11/01 12:16:47;;;;;;;8.15;2.60;;;17.10;99.90;;;;;;5057277;28;20033;-83
2022/11/01 12:19:28;;;;;;;6.15;2.90;;;17.00;99.90;;;;;;5059183;28;20035;-86
2022/11/01 12:21:56;;;;;;;13.52;2.63;;;17.10;99.90;;;;;;5057176;28;20032;-86
2022/11/01 12:24:26;;;;;;;12.10;2.60;;;17.00;99.90;;;;;;5056181;28;20021;-84
2022/11/01 12:26:55;;;;;;;8.48;3.00;;;17.10;99.90;;;;;;5054919;28;20044;-83
2022/11/01 12:29:21;;;;;;;8.70;2.42;;;17.10;99.90;;;;;;5058285;28;20024;-86
2022/11/01 12:31:48;;;;;;;8.68;3.20;;;17.10;99.90;;;;;;5068370;28;20031;-85
2022/11/01 12:34:22;;;;;;;9.48;2.58;;;17.10;99.90;;;;;;5059214;28;20034;-85
2022/11/01 12:36:57;;;;;;;10.65;2.65;;;17.20;99.90;;;;;;5059349;28;20079;-83
2022/11/01 12:39:31;;;;;;;8.52;2.55;;;17.20;99.90;;;;;;5059588;28;20033;-83
2022/11/01 12:41:59;;;;;;;8.52;2.65;;;17.20;99.90;;;;;;5061116;28;20505;-86
2022/11/01 12:44:35;;;;;;;7.88;2.38;;;17.20;99.90;;;;;;5053517;28;20261;-84
2022/11/01 12:47:18;;;;;;;5.28;2.33;;;17.20;99.90;;;;;;5062103;28;20060;-87
2022/11/01 12:49:57;;;;;;;10.40;2.10;;;17.30;99.90;;;;;;5058267;28;20083;-88
2022/11/01 12:52:44;;;;;;;8.13;2.33;;;17.20;99.90;;;;;;5058487;28;20029;-84
2022/11/01 12:55:35;;;;;;;8.55;2.17;;;17.20;99.90;;;;;;5058060;28;20024;-83
2022/11/01 12:58:05;;;;;;;8.63;2.75;;;17.30;99.90;;;;;;5055475;28;20012;-84